sensor_id;sensor_type;location;lat;lon;timestamp;pressure;altitude;pressure_sealevel;temperature;humidity
23261;BME280;11799;47.740;-3.390;2024-03-07T00:00:34;101936.75;;;8.38;100.00
23261;BME280;11799;47.740;-3.390;2024-03-07T00:03:00;101941.00;;;8.40;100.00
23261;BME280;11799;47.740;-3.390;2024-03-07T00:05:25;101936.81;;;8.36;100.00
23261;BME280;11799;47.740;-3.390;2024-03-07T00:07:52;101929.94;;;8.34;100.00
23261;BME280;11799;47.740;-3.390;2024-03-07T00:10:17;101927.41;;;8.31;100.00
23261;BME280;11799;47.740;-3.390;2024-03-07T00:12:43;101929.13;;;8.32;100.00
23261;BME280;11799;47.740;-3.390;2024-03-07T00:15:11;101929.19;;;8.30;100.00
23261;BME280;11799;47.740;-3.390;2024-03-07T00:17:38;101920.69;;;8.25;100.00
23261;BME280;11799;47.740;-3.390;2024-03-07T00:20:04;101927.50;;;8.29;100.00
23261;BME280;11799;47.740;-3.390;2024-03-07T00:22:34;101928.56;;;8.25;100.00
23261;BME280;11799;47.740;-3.390;2024-03-07T00:25:01;101918.75;;;8.28;100.00
23261;BME280;11799;47.740;-3.390;2024-03-07T00:27:27;101923.81;;;8.33;100.00
23261;BME280;11799;47.740;-3.390;2024-03-07T00:29:52;101919.44;;;8.32;100.00
23261;BME280;11799;47.740;-3.390;2024-03-07T00:32:22;101915.56;;;8.22;100.00
23261;BME280;11799;47.740;-3.390;2024-03-07T00:34:49;101912.78;;;8.25;100.00
23261;BME280;11799;47.740;-3.390;2024-03-07T00:37:15;101918.28;;;8.20;100.00
23261;BME280;11799;47.740;-3.390;2024-03-07T00:39:41;101908.47;;;8.24;100.00
23261;BME280;11799;47.740;-3.390;2024-03-07T00:42:06;101903.41;;;8.19;100.00
23261;BME280;11799;47.740;-3.390;2024-03-07T00:44:32;101907.91;;;8.17;100.00
23261;BME280;11799;47.740;-3.390;2024-03-07T00:47:00;101898.00;;;8.22;100.00
23261;BME280;11799;47.740;-3.390;2024-03-07T00:49:25;101902.34;;;8.23;100.00
23261;BME280;11799;47.740;-3.390;2024-03-07T00:51:51;101902.34;;;8.23;100.00
23261;BME280;11799;47.740;-3.390;2024-03-07T00:54:16;101895.44;;;8.21;100.00
23261;BME280;11799;47.740;-3.390;2024-03-07T00:56:42;101898.78;;;8.24;100.00
23261;BME280;11799;47.740;-3.390;2024-03-07T00:59:09;101891.13;;;8.20;100.00
23261;BME280;11799;47.740;-3.390;2024-03-07T01:01:34;101890.34;;;8.18;100.00
23261;BME280;11799;47.740;-3.390;2024-03-07T01:04:01;101879.97;;;8.15;100.00
23261;BME280;11799;47.740;-3.390;2024-03-07T01:06:27;101892.66;;;8.24;100.00
23261;BME280;11799;47.740;-3.390;2024-03-07T01:08:54;101884.94;;;8.21;100.00
23261;BME280;11799;47.740;-3.390;2024-03-07T01:11:20;101870.22;;;8.17;100.00
23261;BME280;11799;47.740;-3.390;2024-03-07T01:13:45;101876.56;;;8.13;100.00
23261;BME280;11799;47.740;-3.390;2024-03-07T01:16:11;101876.84;;;8.08;100.00
23261;BME280;11799;47.740;-3.390;2024-03-07T01:18:37;101866.69;;;8.01;100.00
23261;BME280;11799;47.740;-3.390;2024-03-07T01:21:04;101871.03;;;8.02;100.00
23261;BME280;11799;47.740;-3.390;2024-03-07T01:23:31;101868.78;;;7.94;100.00
23261;BME280;11799;47.740;-3.390;2024-03-07T01:25:58;101860.13;;;7.92;100.00
23261;BME280;11799;47.740;-3.390;2024-03-07T01:28:25;101858.25;;;7.94;100.00
23261;BME280;11799;47.740;-3.390;2024-03-07T01:30:51;101856.78;;;7.88;100.00
23261;BME280;11799;47.740;-3.390;2024-03-07T01:33:18;101863.91;;;7.86;100.00
23261;BME280;11799;47.740;-3.390;2024-03-07T01:35:45;101852.75;;;7.81;100.00
23261;BME280;11799;47.740;-3.390;2024-03-07T01:38:10;101852.75;;;7.81;100.00
23261;BME280;11799;47.740;-3.390;2024-03-07T01:40:36;101851.81;;;7.82;100.00
23261;BME280;11799;47.740;-3.390;2024-03-07T01:43:02;101853.34;;;7.69;100.00
23261;BME280;11799;47.740;-3.390;2024-03-07T01:45:28;101849.94;;;7.67;100.00
23261;BME280;11799;47.740;-3.390;2024-03-07T01:47:54;101850.50;;;7.74;100.00
23261;BME280;11799;47.740;-3.390;2024-03-07T01:50:21;101839.38;;;7.69;100.00
23261;BME280;11799;47.740;-3.390;2024-03-07T01:52:47;101842.84;;;7.69;100.00
23261;BME280;11799;47.740;-3.390;2024-03-07T01:55:16;101838.97;;;7.59;100.00
23261;BME280;11799;47.740;-3.390;2024-03-07T01:57:42;101846.78;;;7.60;100.00
23261;BME280;11799;47.740;-3.390;2024-03-07T02:00:07;101845.91;;;7.60;100.00
23261;BME280;11799;47.740;-3.390;2024-03-07T02:02:34;101834.72;;;7.56;100.00
23261;BME280;11799;47.740;-3.390;2024-03-07T02:05:01;101827.03;;;7.52;100.00
23261;BME280;11799;47.740;-3.390;2024-03-07T02:07:27;101819.78;;;7.57;100.00
23261;BME280;11799;47.740;-3.390;2024-03-07T02:10:02;101820.94;;;7.51;100.00
23261;BME280;11799;47.740;-3.390;2024-03-07T02:12:29;101812.31;;;7.49;100.00
23261;BME280;11799;47.740;-3.390;2024-03-07T02:14:56;101802.31;;;7.39;100.00
23261;BME280;11799;47.740;-3.390;2024-03-07T02:17:23;101807.13;;;7.48;100.00
23261;BME280;11799;47.740;-3.390;2024-03-07T02:19:49;101806.50;;;7.43;100.00
23261;BME280;11799;47.740;-3.390;2024-03-07T02:22:16;101799.47;;;7.43;100.00
23261;BME280;11799;47.740;-3.390;2024-03-07T02:24:41;101808.50;;;7.38;100.00
23261;BME280;11799;47.740;-3.390;2024-03-07T02:27:07;101798.22;;;7.33;100.00
23261;BME280;11799;47.740;-3.390;2024-03-07T02:29:35;101794.72;;;7.33;100.00
23261;BME280;11799;47.740;-3.390;2024-03-07T02:32:02;101797.22;;;7.36;100.00
23261;BME280;11799;47.740;-3.390;2024-03-07T02:34:28;101793.25;;;7.27;100.00
23261;BME280;11799;47.740;-3.390;2024-03-07T02:36:53;101788.53;;;7.34;100.00
23261;BME280;11799;47.740;-3.390;2024-03-07T02:39:19;101788.78;;;7.29;100.00
23261;BME280;11799;47.740;-3.390;2024-03-07T02:41:46;101785.44;;;7.25;100.00
23261;BME280;11799;47.740;-3.390;2024-03-07T02:44:13;101775.63;;;7.29;100.00
23261;BME280;11799;47.740;-3.390;2024-03-07T02:46:40;101781.34;;;7.20;100.00
23261;BME280;11799;47.740;-3.390;2024-03-07T02:49:05;101779.47;;;7.22;100.00
23261;BME280;11799;47.740;-3.390;2024-03-07T02:51:31;101773.66;;;7.15;100.00
23261;BME280;11799;47.740;-3.390;2024-03-07T02:53:57;101772.13;;;7.11;100.00
23261;BME280;11799;47.740;-3.390;2024-03-07T02:56:26;101771.91;;;7.16;100.00
23261;BME280;11799;47.740;-3.390;2024-03-07T02:58:51;101771.13;;;7.14;100.00
23261;BME280;11799;47.740;-3.390;2024-03-07T03:01:17;101770.25;;;7.13;100.00
23261;BME280;11799;47.740;-3.390;2024-03-07T03:03:43;101758.91;;;7.13;100.00
23261;BME280;11799;47.740;-3.390;2024-03-07T03:06:09;101761.69;;;7.10;100.00
23261;BME280;11799;47.740;-3.390;2024-03-07T03:08:35;101756.50;;;7.08;100.00
23261;BME280;11799;47.740;-3.390;2024-03-07T03:11:01;101744.81;;;6.96;100.00
23261;BME280;11799;47.740;-3.390;2024-03-07T03:13:26;101749.22;;;6.96;100.00
23261;BME280;11799;47.740;-3.390;2024-03-07T03:15:56;101754.72;;;6.91;100.00
23261;BME280;11799;47.740;-3.390;2024-03-07T03:18:22;101742.50;;;6.90;100.00
23261;BME280;11799;47.740;-3.390;2024-03-07T03:20:52;101733.22;;;6.83;100.00
23261;BME280;11799;47.740;-3.390;2024-03-07T03:23:18;101740.81;;;6.89;100.00
23261;BME280;11799;47.740;-3.390;2024-03-07T03:25:44;101743.66;;;6.85;100.00
23261;BME280;11799;47.740;-3.390;2024-03-07T03:28:10;101740.03;;;6.87;100.00
23261;BME280;11799;47.740;-3.390;2024-03-07T03:30:41;101735.56;;;6.89;100.00
23261;BME280;11799;47.740;-3.390;2024-03-07T03:33:06;101735.69;;;6.86;100.00
23261;BME280;11799;47.740;-3.390;2024-03-07T03:35:33;101734.13;;;6.82;100.00
23261;BME280;11799;47.740;-3.390;2024-03-07T03:37:59;101730.44;;;6.86;100.00
23261;BME280;11799;47.740;-3.390;2024-03-07T03:40:24;101725.47;;;6.80;100.00
23261;BME280;11799;47.740;-3.390;2024-03-07T03:42:50;101727.19;;;6.81;100.00
23261;BME280;11799;47.740;-3.390;2024-03-07T03:45:15;101724.72;;;6.78;100.00
23261;BME280;11799;47.740;-3.390;2024-03-07T03:47:42;101723.06;;;6.76;100.00
23261;BME280;11799;47.740;-3.390;2024-03-07T03:50:09;101727.47;;;6.75;100.00
23261;BME280;11799;47.740;-3.390;2024-03-07T03:52:35;101721.53;;;6.72;100.00
23261;BME280;11799;47.740;-3.390;2024-03-07T03:55:02;101721.53;;;6.72;100.00
23261;BME280;11799;47.740;-3.390;2024-03-07T03:57:28;101717.19;;;6.71;100.00
23261;BME280;11799;47.740;-3.390;2024-03-07T03:59:57;101723.44;;;6.68;100.00
23261;BME280;11799;47.740;-3.390;2024-03-07T04:02:23;101717.34;;;6.68;100.00
23261;BME280;11799;47.740;-3.390;2024-03-07T04:04:49;101714.72;;;6.68;100.00
23261;BME280;11799;47.740;-3.390;2024-03-07T04:07:15;101713.16;;;6.63;100.00
23261;BME280;11799;47.740;-3.390;2024-03-07T04:09:44;101710.59;;;6.62;100.00
23261;BME280;11799;47.740;-3.390;2024-03-07T04:12:10;101697.97;;;6.51;100.00
23261;BME280;11799;47.740;-3.390;2024-03-07T04:14:40;101703.78;;;6.58;100.00
23261;BME280;11799;47.740;-3.390;2024-03-07T04:17:07;101708.34;;;6.54;100.00
23261;BME280;11799;47.740;-3.390;2024-03-07T04:19:36;101709.13;;;6.56;100.00
23261;BME280;11799;47.740;-3.390;2024-03-07T04:22:01;101711.81;;;6.55;100.00
23261;BME280;11799;47.740;-3.390;2024-03-07T04:24:33;101710.97;;;6.54;100.00
23261;BME280;11799;47.740;-3.390;2024-03-07T04:27:00;101715.13;;;6.58;100.00
23261;BME280;11799;47.740;-3.390;2024-03-07T04:29:28;101712.72;;;6.54;100.00
23261;BME280;11799;47.740;-3.390;2024-03-07T04:31:54;101714.66;;;6.50;100.00
23261;BME280;11799;47.740;-3.390;2024-03-07T04:34:20;101713.94;;;6.47;100.00
23261;BME280;11799;47.740;-3.390;2024-03-07T04:36:45;101718.34;;;6.46;100.00
23261;BME280;11799;47.740;-3.390;2024-03-07T04:39:11;101724.78;;;6.39;100.00
23261;BME280;11799;47.740;-3.390;2024-03-07T04:41:48;101725.03;;;6.35;100.00
23261;BME280;11799;47.740;-3.390;2024-03-07T04:44:13;101730.34;;;6.33;100.00
23261;BME280;11799;47.740;-3.390;2024-03-07T04:46:39;101725.09;;;6.33;100.00
23261;BME280;11799;47.740;-3.390;2024-03-07T04:49:09;101728.56;;;6.34;100.00
23261;BME280;11799;47.740;-3.390;2024-03-07T04:51:34;101734.88;;;6.29;100.00
23261;BME280;11799;47.740;-3.390;2024-03-07T04:54:00;101730.28;;;6.35;100.00
23261;BME280;11799;47.740;-3.390;2024-03-07T04:56:26;101734.03;;;6.29;100.00
23261;BME280;11799;47.740;-3.390;2024-03-07T04:58:51;101738.56;;;6.25;100.00
23261;BME280;11799;47.740;-3.390;2024-03-07T05:01:18;101735.94;;;6.25;100.00
23261;BME280;11799;47.740;-3.390;2024-03-07T05:03:43;101743.66;;;6.28;100.00
23261;BME280;11799;47.740;-3.390;2024-03-07T05:06:09;101746.22;;;6.30;100.00
23261;BME280;11799;47.740;-3.390;2024-03-07T05:08:34;101753.50;;;6.23;100.00
23261;BME280;11799;47.740;-3.390;2024-03-07T05:11:00;101753.56;;;6.22;100.00
23261;BME280;11799;47.740;-3.390;2024-03-07T05:13:25;101757.25;;;6.18;100.00
23261;BME280;11799;47.740;-3.390;2024-03-07T05:15:51;101771.09;;;6.21;100.00
23261;BME280;11799;47.740;-3.390;2024-03-07T05:18:18;101773.06;;;6.16;100.00
23261;BME280;11799;47.740;-3.390;2024-03-07T05:20:43;101775.69;;;6.16;100.00
23261;BME280;11799;47.740;-3.390;2024-03-07T05:23:09;101784.59;;;6.12;100.00
23261;BME280;11799;47.740;-3.390;2024-03-07T05:25:36;101790.69;;;6.13;100.00
23261;BME280;11799;47.740;-3.390;2024-03-07T05:28:01;101796.94;;;6.10;100.00
23261;BME280;11799;47.740;-3.390;2024-03-07T05:30:28;101807.34;;;6.12;100.00
23261;BME280;11799;47.740;-3.390;2024-03-07T05:32:54;101809.25;;;6.08;100.00
23261;BME280;11799;47.740;-3.390;2024-03-07T05:35:20;101822.44;;;6.07;100.00
23261;BME280;11799;47.740;-3.390;2024-03-07T05:37:46;101815.63;;;6.03;100.00
23261;BME280;11799;47.740;-3.390;2024-03-07T05:40:12;101816.72;;;5.97;100.00
23261;BME280;11799;47.740;-3.390;2024-03-07T05:42:38;101823.69;;;5.98;100.00
23261;BME280;11799;47.740;-3.390;2024-03-07T05:45:04;101838.44;;;6.01;100.00
23261;BME280;11799;47.740;-3.390;2024-03-07T05:47:33;101839.53;;;5.95;100.00
23261;BME280;11799;47.740;-3.390;2024-03-07T05:49:59;101837.69;;;5.97;100.00
23261;BME280;11799;47.740;-3.390;2024-03-07T05:52:24;101845.88;;;5.89;100.00
23261;BME280;11799;47.740;-3.390;2024-03-07T05:54:50;101838.63;;;5.96;100.00
23261;BME280;11799;47.740;-3.390;2024-03-07T05:57:16;101821.66;;;5.83;100.00
23261;BME280;11799;47.740;-3.390;2024-03-07T05:59:41;101832.03;;;5.86;100.00
23261;BME280;11799;47.740;-3.390;2024-03-07T06:02:07;101824.28;;;5.83;100.00
23261;BME280;11799;47.740;-3.390;2024-03-07T06:04:32;101822.53;;;5.83;100.00
23261;BME280;11799;47.740;-3.390;2024-03-07T06:06:59;101823.78;;;5.75;100.00
23261;BME280;11799;47.740;-3.390;2024-03-07T06:09:25;101831.50;;;5.78;100.00
23261;BME280;11799;47.740;-3.390;2024-03-07T06:11:52;101831.59;;;5.76;100.00
23261;BME280;11799;47.740;-3.390;2024-03-07T06:14:17;101836.88;;;5.75;100.00
23261;BME280;11799;47.740;-3.390;2024-03-07T06:16:43;101844.09;;;5.70;100.00
23261;BME280;11799;47.740;-3.390;2024-03-07T06:19:09;101837.94;;;5.71;100.00
23261;BME280;11799;47.740;-3.390;2024-03-07T06:21:36;101845.78;;;5.71;100.00
23261;BME280;11799;47.740;-3.390;2024-03-07T06:24:04;101852.06;;;5.67;100.00
23261;BME280;11799;47.740;-3.390;2024-03-07T06:26:32;101847.50;;;5.72;100.00
23261;BME280;11799;47.740;-3.390;2024-03-07T06:29:17;101847.88;;;5.62;100.00
23261;BME280;11799;47.740;-3.390;2024-03-07T06:31:43;101838.44;;;5.58;100.00
23261;BME280;11799;47.740;-3.390;2024-03-07T06:34:09;101835.81;;;5.58;100.00
23261;BME280;11799;47.740;-3.390;2024-03-07T06:36:35;101832.28;;;5.59;100.00
23261;BME280;11799;47.740;-3.390;2024-03-07T06:39:00;101834.16;;;5.56;100.00
23261;BME280;11799;47.740;-3.390;2024-03-07T06:41:26;101836.72;;;5.57;100.00
23261;BME280;11799;47.740;-3.390;2024-03-07T06:43:52;101842.03;;;5.56;100.00
23261;BME280;11799;47.740;-3.390;2024-03-07T06:46:20;101838.38;;;5.60;100.00
23261;BME280;11799;47.740;-3.390;2024-03-07T06:48:46;101839.41;;;5.56;100.00
23261;BME280;11799;47.740;-3.390;2024-03-07T06:51:11;101843.47;;;5.63;100.00
23261;BME280;11799;47.740;-3.390;2024-03-07T06:53:37;101843.72;;;5.57;100.00
23261;BME280;11799;47.740;-3.390;2024-03-07T06:56:03;101837.25;;;5.66;100.00
23261;BME280;11799;47.740;-3.390;2024-03-07T06:58:29;101824.28;;;5.62;100.00
23261;BME280;11799;47.740;-3.390;2024-03-07T07:00:54;101832.34;;;5.58;100.00
23261;BME280;11799;47.740;-3.390;2024-03-07T07:03:22;101834.91;;;5.59;100.00
23261;BME280;11799;47.740;-3.390;2024-03-07T07:05:49;101834.09;;;5.57;100.00
23261;BME280;11799;47.740;-3.390;2024-03-07T07:08:15;101822.78;;;5.57;100.00
23261;BME280;11799;47.740;-3.390;2024-03-07T07:10:41;101835.81;;;5.58;100.00
23261;BME280;11799;47.740;-3.390;2024-03-07T07:13:08;101835.03;;;5.56;100.00
23261;BME280;11799;47.740;-3.390;2024-03-07T07:15:34;101825.19;;;5.61;100.00
23261;BME280;11799;47.740;-3.390;2024-03-07T07:18:02;101826.38;;;5.54;100.00
23261;BME280;11799;47.740;-3.390;2024-03-07T07:20:29;101829.97;;;5.52;100.00
23261;BME280;11799;47.740;-3.390;2024-03-07T07:22:54;101830.16;;;5.47;100.00
23261;BME280;11799;47.740;-3.390;2024-03-07T07:25:20;101838.88;;;5.48;100.00
23261;BME280;11799;47.740;-3.390;2024-03-07T07:27:48;101842.94;;;5.55;100.00
23261;BME280;11799;47.740;-3.390;2024-03-07T07:30:18;101842.28;;;5.50;100.00
23261;BME280;11799;47.740;-3.390;2024-03-07T07:32:44;101837.75;;;5.53;100.00
23261;BME280;11799;47.740;-3.390;2024-03-07T07:35:11;101842.81;;;5.58;100.00
23261;BME280;11799;47.740;-3.390;2024-03-07T07:37:41;101838.56;;;5.55;100.00
23261;BME280;11799;47.740;-3.390;2024-03-07T07:40:08;101842.16;;;5.53;100.00
23261;BME280;11799;47.740;-3.390;2024-03-07T07:42:37;101843.06;;;5.52;100.00
23261;BME280;11799;47.740;-3.390;2024-03-07T07:45:08;101854.28;;;5.55;100.00
23261;BME280;11799;47.740;-3.390;2024-03-07T07:47:42;101844.59;;;5.57;100.00
23261;BME280;11799;47.740;-3.390;2024-03-07T07:50:19;101858.53;;;5.58;100.00
23261;BME280;11799;47.740;-3.390;2024-03-07T07:52:53;101863.53;;;5.64;100.00
23261;BME280;11799;47.740;-3.390;2024-03-07T07:55:20;101859.16;;;5.64;100.00
23261;BME280;11799;47.740;-3.390;2024-03-07T07:57:54;101856.41;;;5.68;100.00
23261;BME280;11799;47.740;-3.390;2024-03-07T08:00:21;101860.00;;;5.65;100.00
23261;BME280;11799;47.740;-3.390;2024-03-07T08:03:02;101865.06;;;5.70;100.00
23261;BME280;11799;47.740;-3.390;2024-03-07T08:05:32;101847.22;;;5.78;100.00
23261;BME280;11799;47.740;-3.390;2024-03-07T08:08:00;101853.06;;;5.84;100.00
23261;BME280;11799;47.740;-3.390;2024-03-07T08:10:29;101845.81;;;5.91;100.00
23261;BME280;11799;47.740;-3.390;2024-03-07T08:12:55;101832.00;;;6.08;100.00
23261;BME280;11799;47.740;-3.390;2024-03-07T08:15:21;101831.69;;;6.15;100.00
23261;BME280;11799;47.740;-3.390;2024-03-07T08:17:48;101818.50;;;6.17;100.00
23261;BME280;11799;47.740;-3.390;2024-03-07T08:20:18;101835.94;;;6.18;100.00
23261;BME280;11799;47.740;-3.390;2024-03-07T08:22:44;101824.47;;;6.20;100.00
23261;BME280;11799;47.740;-3.390;2024-03-07T08:25:14;101841.06;;;6.21;100.00
23261;BME280;11799;47.740;-3.390;2024-03-07T08:27:40;101841.84;;;6.23;100.00
23261;BME280;11799;47.740;-3.390;2024-03-07T08:30:09;101829.38;;;6.28;100.00
23261;BME280;11799;47.740;-3.390;2024-03-07T08:32:49;101833.44;;;6.35;100.00
23261;BME280;11799;47.740;-3.390;2024-03-07T08:35:15;101837.66;;;6.38;100.00
23261;BME280;11799;47.740;-3.390;2024-03-07T08:37:46;101856.88;;;6.38;100.00
23261;BME280;11799;47.740;-3.390;2024-03-07T08:40:14;101878.59;;;6.42;100.00
23261;BME280;11799;47.740;-3.390;2024-03-07T08:42:48;101872.09;;;6.50;100.00
23261;BME280;11799;47.740;-3.390;2024-03-07T08:45:17;101861.53;;;6.52;100.00
23261;BME280;11799;47.740;-3.390;2024-03-07T08:47:45;101854.16;;;6.60;100.00
23261;BME280;11799;47.740;-3.390;2024-03-07T08:50:12;101857.50;;;6.63;100.00
23261;BME280;11799;47.740;-3.390;2024-03-07T08:52:39;101846.94;;;6.65;100.00
23261;BME280;11799;47.740;-3.390;2024-03-07T08:55:15;101844.19;;;6.68;100.00
23261;BME280;11799;47.740;-3.390;2024-03-07T08:57:43;101844.97;;;6.70;100.00
23261;BME280;11799;47.740;-3.390;2024-03-07T09:00:15;101829.16;;;6.72;100.00
23261;BME280;11799;47.740;-3.390;2024-03-07T09:02:52;101843.13;;;6.72;100.00
23261;BME280;11799;47.740;-3.390;2024-03-07T09:05:19;101837.66;;;6.77;100.00
23261;BME280;11799;47.740;-3.390;2024-03-07T09:07:46;101841.56;;;6.87;100.00
23261;BME280;11799;47.740;-3.390;2024-03-07T09:10:15;101833.41;;;6.93;100.00
23261;BME280;11799;47.740;-3.390;2024-03-07T09:12:41;101838.34;;;6.99;100.00
23261;BME280;11799;47.740;-3.390;2024-03-07T09:15:07;101836.16;;;7.09;100.00
23261;BME280;11799;47.740;-3.390;2024-03-07T09:17:36;101835.44;;;7.05;100.00
23261;BME280;11799;47.740;-3.390;2024-03-07T09:20:03;101847.16;;;7.17;100.00
23261;BME280;11799;47.740;-3.390;2024-03-07T09:22:31;101833.94;;;7.18;100.00
23261;BME280;11799;47.740;-3.390;2024-03-07T09:24:57;101819.66;;;7.24;100.00
23261;BME280;11799;47.740;-3.390;2024-03-07T09:27:22;101823.84;;;7.28;100.00
23261;BME280;11799;47.740;-3.390;2024-03-07T09:29:48;101828.88;;;7.33;100.00
23261;BME280;11799;47.740;-3.390;2024-03-07T09:32:14;101825.13;;;7.38;100.00
23261;BME280;11799;47.740;-3.390;2024-03-07T09:34:40;101814.00;;;7.50;100.00
23261;BME280;11799;47.740;-3.390;2024-03-07T09:37:05;101792.34;;;7.62;100.00
23261;BME280;11799;47.740;-3.390;2024-03-07T09:39:34;101783.06;;;7.73;100.00
23261;BME280;11799;47.740;-3.390;2024-03-07T09:42:07;101779.91;;;7.83;100.00
23261;BME280;11799;47.740;-3.390;2024-03-07T09:44:36;101762.25;;;7.85;100.00
23261;BME280;11799;47.740;-3.390;2024-03-07T09:47:05;101775.56;;;8.00;100.00
23261;BME280;11799;47.740;-3.390;2024-03-07T09:49:32;101776.09;;;8.06;100.00
23261;BME280;11799;47.740;-3.390;2024-03-07T09:52:00;101787.19;;;8.11;100.00
23261;BME280;11799;47.740;-3.390;2024-03-07T09:54:26;101790.28;;;8.19;100.00
23261;BME280;11799;47.740;-3.390;2024-03-07T09:56:53;101807.22;;;8.31;100.00
23261;BME280;11799;47.740;-3.390;2024-03-07T09:59:20;101798.19;;;8.37;100.00
23261;BME280;11799;47.740;-3.390;2024-03-07T10:01:55;101769.75;;;8.43;100.00
23261;BME280;11799;47.740;-3.390;2024-03-07T10:04:31;101769.25;;;8.52;100.00
23261;BME280;11799;47.740;-3.390;2024-03-07T10:07:02;101783.72;;;8.61;100.00
23261;BME280;11799;47.740;-3.390;2024-03-07T10:09:29;101796.50;;;8.67;100.00
23261;BME280;11799;47.740;-3.390;2024-03-07T10:11:59;101789.97;;;8.74;100.00
23261;BME280;11799;47.740;-3.390;2024-03-07T10:14:25;101798.41;;;8.81;100.00
23261;BME280;11799;47.740;-3.390;2024-03-07T10:16:54;101773.06;;;8.78;100.00
23261;BME280;11799;47.740;-3.390;2024-03-07T10:19:22;101764.91;;;8.83;100.00
23261;BME280;11799;47.740;-3.390;2024-03-07T10:21:47;101739.94;;;8.90;100.00
23261;BME280;11799;47.740;-3.390;2024-03-07T10:24:13;101750.63;;;9.03;100.00
23261;BME280;11799;47.740;-3.390;2024-03-07T10:26:40;101798.53;;;9.25;100.00
23261;BME280;11799;47.740;-3.390;2024-03-07T10:29:08;101778.59;;;9.21;100.00
23261;BME280;11799;47.740;-3.390;2024-03-07T10:31:35;101769.19;;;9.31;100.00
23261;BME280;11799;47.740;-3.390;2024-03-07T10:34:03;101758.91;;;9.26;100.00
23261;BME280;11799;47.740;-3.390;2024-03-07T10:36:32;101748.19;;;9.30;100.00
23261;BME280;11799;47.740;-3.390;2024-03-07T10:38:59;101739.44;;;9.29;100.00
23261;BME280;11799;47.740;-3.390;2024-03-07T10:41:45;101762.53;;;9.40;100.00
23261;BME280;11799;47.740;-3.390;2024-03-07T10:44:24;101760.91;;;9.53;100.00
23261;BME280;11799;47.740;-3.390;2024-03-07T10:46:58;101762.34;;;9.58;100.00
23261;BME280;11799;47.740;-3.390;2024-03-07T10:49:31;101751.78;;;9.58;100.00
23261;BME280;11799;47.740;-3.390;2024-03-07T10:52:06;101754.81;;;9.67;100.00
23261;BME280;11799;47.740;-3.390;2024-03-07T10:54:46;101758.13;;;9.70;100.00
23261;BME280;11799;47.740;-3.390;2024-03-07T10:57:31;101756.16;;;9.74;100.00
23261;BME280;11799;47.740;-3.390;2024-03-07T11:00:03;101744.38;;;9.79;100.00
23261;BME280;11799;47.740;-3.390;2024-03-07T11:02:49;101723.75;;;9.86;100.00
23261;BME280;11799;47.740;-3.390;2024-03-07T11:05:19;101734.69;;;9.94;100.00
23261;BME280;11799;47.740;-3.390;2024-03-07T11:07:44;101712.81;;;9.92;100.00
23261;BME280;11799;47.740;-3.390;2024-03-07T11:10:10;101662.41;;;9.97;100.00
23261;BME280;11799;47.740;-3.390;2024-03-07T11:12:38;101669.94;;;10.03;100.00
23261;BME280;11799;47.740;-3.390;2024-03-07T11:15:08;101677.28;;;9.98;100.00
23261;BME280;11799;47.740;-3.390;2024-03-07T11:17:44;101671.44;;;9.92;100.00
23261;BME280;11799;47.740;-3.390;2024-03-07T11:20:31;101651.28;;;10.06;100.00
23261;BME280;11799;47.740;-3.390;2024-03-07T11:22:59;101648.94;;;10.01;100.00
23261;BME280;11799;47.740;-3.390;2024-03-07T11:25:26;101633.00;;;10.03;100.00
23261;BME280;11799;47.740;-3.390;2024-03-07T11:30:19;101636.47;;;10.03;100.00
23261;BME280;11799;47.740;-3.390;2024-03-07T11:32:46;101606.31;;;10.07;100.00
23261;BME280;11799;47.740;-3.390;2024-03-07T11:35:14;101600.28;;;10.05;100.00
23261;BME280;11799;47.740;-3.390;2024-03-07T11:37:44;101582.94;;;10.15;100.00
23261;BME280;11799;47.740;-3.390;2024-03-07T11:40:42;101616.13;;;10.19;100.00
23261;BME280;11799;47.740;-3.390;2024-03-07T11:43:00;101535.00;;;10.36;100.00
23261;BME280;11799;47.740;-3.390;2024-03-07T11:45:30;101536.81;;;10.35;100.00
23261;BME280;11799;47.740;-3.390;2024-03-07T11:48:04;101508.16;;;10.29;100.00
23261;BME280;11799;47.740;-3.390;2024-03-07T11:50:36;101450.41;;;10.50;100.00
23261;BME280;11799;47.740;-3.390;2024-03-07T11:53:03;101418.84;;;10.48;100.00
23261;BME280;11799;47.740;-3.390;2024-03-07T11:55:33;101462.69;;;10.51;100.00
23261;BME280;11799;47.740;-3.390;2024-03-07T11:58:20;101408.38;;;10.59;100.00
23261;BME280;11799;47.740;-3.390;2024-03-07T12:00:50;101425.50;;;10.67;100.00
23261;BME280;11799;47.740;-3.390;2024-03-07T12:03:19;101406.59;;;10.60;100.00
23261;BME280;11799;47.740;-3.390;2024-03-07T12:05:51;101380.81;;;10.64;100.00
23261;BME280;11799;47.740;-3.390;2024-03-07T12:08:17;101386.63;;;10.69;100.00
23261;BME280;11799;47.740;-3.390;2024-03-07T12:10:44;101439.34;;;10.70;100.00
23261;BME280;11799;47.740;-3.390;2024-03-07T12:13:11;101388.22;;;10.71;100.00
23261;BME280;11799;47.740;-3.390;2024-03-07T12:15:38;101388.63;;;10.90;100.00
23261;BME280;11799;47.740;-3.390;2024-03-07T12:18:04;101353.66;;;10.87;100.00
23261;BME280;11799;47.740;-3.390;2024-03-07T12:20:40;101368.72;;;10.98;100.00
23261;BME280;11799;47.740;-3.390;2024-03-07T12:23:08;101356.88;;;11.03;100.00
23261;BME280;11799;47.740;-3.390;2024-03-07T12:25:38;101336.78;;;11.01;100.00
23261;BME280;11799;47.740;-3.390;2024-03-07T12:28:12;101393.59;;;10.95;100.00
23261;BME280;11799;47.740;-3.390;2024-03-07T12:30:54;101351.81;;;11.00;100.00
23261;BME280;11799;47.740;-3.390;2024-03-07T12:33:22;101251.22;;;11.14;100.00
23261;BME280;11799;47.740;-3.390;2024-03-07T12:35:51;101275.75;;;10.93;100.00
23261;BME280;11799;47.740;-3.390;2024-03-07T12:38:21;101298.38;;;10.84;100.00
23261;BME280;11799;47.740;-3.390;2024-03-07T12:41:04;101239.06;;;10.88;100.00
23261;BME280;11799;47.740;-3.390;2024-03-07T12:43:40;101289.09;;;10.78;100.00